Weather at Lester B. Pearson International Airport

Public forecast

Using degrees Celsius for public forecast. Weather courtesy of forecast.io.

Current aviation weather report (METAR) for Lester B. Pearson International Airport

Retrieved 2022/05/23 08:00 UTC (41 minutes ago):

CYYZ 230800Z 34009KT 15SM BKN080 09/02 A3029 RMK AC7 SLP262

Aviation forecast (TAF) for Lester B. Pearson International Airport

Retrieved 2022/05/23 06:42 UTC (2 hours ago):

TAF CYYZ 230540Z 2306/2412 31008KT P6SM FEW180 FM231400 01012KT P6SM SCT050 TEMPO 2314/2320 BKN050 BECMG 2318/2320 15012KT FM240100 05006KT P6SM FEW060 RMK NXT FCST BY 230900Z